Red Rock, Minnesota
Current Conditions -  °F | °C
As of 11:16 PM on Friday 21 Nov 2014 (Local Time) from KAUM Reporting Station
Overcast Overcast  
Wind Chill: 18°   Ceiling: 1300
Heat Index: 30°   Visibility: 10mi
Dew Point: 27°   Wind: 17mph
Humidity: 86%   Direction: 190°S
Pressure: 29.95"   Gusts: 22mph
Location:  43.7188°N, 92.868°W
Report Text: KAUM 220516Z AUTO 19015G19KT 10SM OVC013 M01/M03 A2995 RMK AO2
Loading
Personal Weather Stations






























Interactive Weather Map New forecast layout! Learn more

10-Day Weather Forecast

Advertisements
Track Severe Weather on mobile